Time;durP1;ratioP1;P1;durP2;ratioP2;P2;SDS_P1;SDS_P2;PMS_P1;PMS_P2;Temp;Humidity;BMP_temperature;BMP_pressure;BME280_temperature;BME280_humidity;BME280_pressure;Samples;Min_cycle;Max_cycle;Signal;HPM_P1;HPM_P2
2023/02/10 00:01:58;;;;;;;29.27;12.55;;;2.70;99.90;;;;;;4996218;28;20077;-69
2023/02/10 00:04:23;;;;;;;24.42;11.02;;;2.70;99.90;;;;;;5014268;28;20124;-69
2023/02/10 00:06:49;;;;;;;20.88;11.10;;;2.70;99.90;;;;;;5014056;28;20082;-69
2023/02/10 00:09:14;;;;;;;29.00;11.07;;;2.60;99.90;;;;;;5014076;28;20096;-69
2023/02/10 00:11:59;;;;;;;22.05;10.65;;;2.50;99.90;;;;;;5014094;28;20049;-69
2023/02/10 00:14:27;;;;;;;20.90;10.38;;;2.50;99.90;;;;;;5014190;28;20045;-69
2023/02/10 00:16:53;;;;;;;27.42;11.18;;;2.70;99.90;;;;;;5014058;28;20042;-69
2023/02/10 00:19:20;;;;;;;33.05;10.85;;;2.60;99.90;;;;;;5013912;28;20448;-69
2023/02/10 00:21:46;;;;;;;35.40;12.60;;;2.70;99.90;;;;;;5013609;28;20109;-69
2023/02/10 00:24:11;;;;;;;25.58;10.95;;;2.80;99.90;;;;;;5013830;28;20125;-69
2023/02/10 00:26:37;;;;;;;28.02;10.57;;;2.60;99.90;;;;;;4996234;28;20054;-69
2023/02/10 00:29:03;;;;;;;25.88;10.95;;;2.70;99.90;;;;;;4996487;28;20049;-69
2023/02/10 00:31:29;;;;;;;33.78;12.80;;;2.50;99.90;;;;;;5013725;28;20048;-69
2023/02/10 00:33:55;;;;;;;25.05;10.50;;;2.50;99.90;;;;;;4995834;28;20034;-70
2023/02/10 00:36:21;;;;;;;23.20;9.52;;;2.70;99.90;;;;;;4979703;28;20590;-69
2023/02/10 00:38:47;;;;;;;23.73;10.27;;;2.60;99.90;;;;;;5013728;28;20046;-69
2023/02/10 00:41:18;;;;;;;27.15;10.02;;;2.60;99.90;;;;;;5013584;28;20048;-69
2023/02/10 00:43:44;;;;;;;20.35;8.88;;;2.50;99.90;;;;;;4995605;28;20125;-69
2023/02/10 00:46:11;;;;;;;23.10;8.35;;;2.50;99.90;;;;;;5013391;28;20074;-70
2023/02/10 00:48:37;;;;;;;22.23;10.65;;;2.50;99.90;;;;;;4995703;28;20050;-69
2023/02/10 00:51:03;;;;;;;29.08;10.45;;;2.40;99.90;;;;;;4995589;28;20104;-69
2023/02/10 00:53:29;;;;;;;23.70;10.18;;;2.40;99.90;;;;;;5013182;28;20038;-70
2023/02/10 00:55:55;;;;;;;22.45;10.43;;;2.50;99.90;;;;;;5013426;28;20435;-69
2023/02/10 00:58:20;;;;;;;21.50;10.63;;;2.60;99.90;;;;;;5013067;28;20069;-69
2023/02/10 01:00:47;;;;;;;25.30;9.77;;;2.60;99.90;;;;;;4979156;28;20049;-69
2023/02/10 01:03:13;;;;;;;24.77;9.82;;;2.40;99.90;;;;;;5012795;28;20045;-70
2023/02/10 01:05:38;;;;;;;18.90;8.65;;;2.30;99.90;;;;;;4995346;28;20042;-70
2023/02/10 01:08:04;;;;;;;25.30;10.13;;;2.50;99.90;;;;;;5013191;28;20042;-69
2023/02/10 01:10:34;;;;;;;20.80;8.95;;;2.40;99.90;;;;;;4995391;28;20030;-69
2023/02/10 01:13:00;;;;;;;23.25;11.65;;;2.50;99.90;;;;;;5012775;28;20403;-69
2023/02/10 01:15:26;;;;;;;27.40;8.95;;;2.40;99.90;;;;;;4995259;28;20092;-69
2023/02/10 01:17:52;;;;;;;25.27;10.30;;;2.30;99.90;;;;;;5012898;28;20038;-69
2023/02/10 01:20:17;;;;;;;23.73;9.45;;;2.40;99.90;;;;;;4995287;28;20475;-69
2023/02/10 01:22:43;;;;;;;20.50;9.38;;;2.30;99.90;;;;;;5012661;28;20041;-69
2023/02/10 01:25:08;;;;;;;22.58;8.98;;;2.40;99.90;;;;;;4995132;28;20521;-69
2023/02/10 01:27:34;;;;;;;21.08;8.48;;;2.30;99.90;;;;;;5012554;28;20052;-69
2023/02/10 01:29:59;;;;;;;21.40;8.93;;;2.50;99.90;;;;;;5012574;28;20133;-69
2023/02/10 01:32:25;;;;;;;29.65;9.55;;;2.40;99.90;;;;;;5012287;28;20115;-69
2023/02/10 01:34:51;;;;;;;21.42;7.95;;;2.40;99.90;;;;;;4995152;28;20491;-69
2023/02/10 01:37:16;;;;;;;21.38;7.93;;;2.50;99.90;;;;;;4994949;28;20124;-69
2023/02/10 01:39:42;;;;;;;20.35;8.90;;;2.30;99.90;;;;;;5012560;28;20064;-69
2023/02/10 01:42:12;;;;;;;24.25;8.35;;;2.40;99.90;;;;;;5012137;28;20594;-69
2023/02/10 01:44:40;;;;;;;15.32;7.80;;;2.40;99.90;;;;;;4994858;28;20042;-69
2023/02/10 01:47:07;;;;;;;22.45;8.00;;;2.50;99.90;;;;;;5012144;28;20744;-69
2023/02/10 01:49:39;;;;;;;24.73;8.52;;;2.40;99.90;;;;;;5012516;28;20388;-69
2023/02/10 01:52:07;;;;;;;26.55;9.00;;;2.30;99.90;;;;;;4994691;28;20038;-69
2023/02/10 01:54:37;;;;;;;22.88;7.97;;;2.20;99.90;;;;;;5012364;28;20042;-69
2023/02/10 01:57:03;;;;;;;18.38;7.28;;;2.40;99.90;;;;;;5012300;28;20044;-69
2023/02/10 01:59:35;;;;;;;15.40;7.20;;;2.20;99.90;;;;;;5012072;28;20042;-69
2023/02/10 02:02:06;;;;;;;20.30;7.10;;;2.10;99.90;;;;;;5011657;28;20049;-69
2023/02/10 02:04:39;;;;;;;23.92;8.18;;;2.10;99.90;;;;;;5012249;28;20057;-69
2023/02/10 02:07:04;;;;;;;24.17;8.43;;;2.10;99.90;;;;;;5012136;28;20131;-69
2023/02/10 02:09:30;;;;;;;18.13;6.97;;;2.30;99.90;;;;;;5012118;28;20066;-69
2023/02/10 02:12:32;;;;;;;18.73;7.00;;;2.20;99.90;;;;;;5011041;28;20038;-69
2023/02/10 02:15:20;;;;;;;20.67;6.78;;;2.10;99.90;;;;;;5012059;28;20045;-69
2023/02/10 02:18:01;;;;;;;19.58;7.63;;;2.10;99.90;;;;;;4994587;28;20498;-69
2023/02/10 02:20:45;;;;;;;16.00;6.82;;;2.20;99.90;;;;;;4994518;28;20088;-70
2023/02/10 02:23:22;;;;;;;17.40;7.15;;;2.30;99.90;;;;;;5011813;28;20133;-67
2023/02/10 02:26:06;;;;;;;14.75;6.35;;;2.30;99.90;;;;;;5011905;28;20049;-69
2023/02/10 02:28:48;;;;;;;16.95;6.32;;;2.20;99.90;;;;;;4994193;28;20074;-69
2023/02/10 02:31:43;;;;;;;19.77;5.43;;;2.10;99.90;;;;;;5011757;28;20569;-69
2023/02/10 02:34:28;;;;;;;16.00;6.38;;;2.00;99.90;;;;;;5011567;28;20046;-70
2023/02/10 02:37:01;;;;;;;19.23;6.97;;;2.20;99.90;;;;;;5011726;28;20046;-69
2023/02/10 02:39:27;;;;;;;22.52;8.00;;;2.20;99.90;;;;;;5011971;28;20053;-69
2023/02/10 02:42:11;;;;;;;20.02;6.65;;;2.00;99.90;;;;;;4994135;28;20065;-69
2023/02/10 02:44:37;;;;;;;;;;;2.00;99.90;;;;;;5012227;28;20046;-69
2023/02/10 02:47:30;;;;;;;17.05;5.90;;;2.20;99.90;;;;;;5011569;28;19986;-70
2023/02/10 02:50:05;;;;;;;19.15;6.55;;;2.10;99.90;;;;;;4994137;28;20454;-67
2023/02/10 02:52:53;;;;;;;16.30;5.97;;;2.10;99.90;;;;;;4977456;28;20045;-67
2023/02/10 02:55:36;;;;;;;18.80;6.88;;;2.00;99.90;;;;;;5011546;28;20045;-67
2023/02/10 02:58:13;;;;;;;17.25;6.72;;;1.90;99.90;;;;;;5011442;28;20499;-69
2023/02/10 03:00:41;;;;;;;14.25;6.72;;;1.90;99.90;;;;;;4993553;28;20034;-69
2023/02/10 03:03:08;;;;;;;14.32;6.43;;;2.20;99.90;;;;;;4993810;28;20049;-69
2023/02/10 03:05:34;;;;;;;14.90;6.60;;;1.90;99.90;;;;;;5011522;28;20038;-69
2023/02/10 03:08:00;;;;;;;20.98;7.55;;;2.20;99.90;;;;;;5011387;28;20087;-69
2023/02/10 03:10:25;;;;;;;18.55;7.15;;;2.10;99.90;;;;;;5011340;28;20038;-69
2023/02/10 03:12:51;;;;;;;22.45;7.45;;;2.00;99.90;;;;;;5011121;28;20034;-69
2023/02/10 03:15:17;;;;;;;19.00;6.97;;;2.20;99.90;;;;;;5011621;28;20042;-69
2023/02/10 03:17:43;;;;;;;16.20;7.90;;;2.20;99.90;;;;;;4993868;28;20454;-69
2023/02/10 03:20:09;;;;;;;24.20;7.70;;;2.00;99.90;;;;;;4993812;28;20044;-69
2023/02/10 03:22:35;;;;;;;22.25;7.55;;;2.00;99.90;;;;;;4995215;28;20120;-69
2023/02/10 03:25:00;;;;;;;16.25;8.57;;;2.10;99.90;;;;;;4997292;28;20069;-69
2023/02/10 03:27:26;;;;;;;21.38;7.65;;;2.00;99.90;;;;;;5015028;28;20050;-69
2023/02/10 03:29:52;;;;;;;23.50;7.75;;;1.90;99.90;;;;;;4997502;28;20041;-70
2023/02/10 03:32:18;;;;;;;18.00;8.50;;;2.00;99.90;;;;;;4997068;28;20541;-69
2023/02/10 03:34:44;;;;;;;25.02;9.30;;;2.00;99.90;;;;;;4980934;28;20081;-70
2023/02/10 03:37:10;;;;;;;18.38;8.07;;;1.90;99.90;;;;;;5014819;28;20077;-70
2023/02/10 03:39:35;;;;;;;21.38;8.60;;;2.00;99.90;;;;;;5014622;28;20077;-69
2023/02/10 03:42:01;;;;;;;23.88;8.73;;;2.10;99.90;;;;;;4996741;28;20084;-70
2023/02/10 03:44:26;;;;;;;35.72;9.88;;;2.10;99.90;;;;;;5014731;28;20046;-69
2023/02/10 03:46:52;;;;;;;26.33;9.82;;;2.10;99.90;;;;;;5014617;28;20145;-70
2023/02/10 03:49:17;;;;;;;30.27;9.13;;;2.10;99.90;;;;;;5014606;28;20034;-70
2023/02/10 03:51:43;;;;;;;31.63;10.68;;;2.00;99.90;;;;;;5014409;28;20034;-69
2023/02/10 03:54:09;;;;;;;21.80;9.27;;;2.10;99.90;;;;;;5014004;28;20122;-70
2023/02/10 03:56:34;;;;;;;24.20;10.68;;;1.90;99.90;;;;;;5014379;28;20088;-69
2023/02/10 03:59:01;;;;;;;20.92;9.88;;;2.10;99.90;;;;;;5014497;28;20049;-70
2023/02/10 04:01:27;;;;;;;26.35;10.40;;;2.00;99.90;;;;;;5037199;23;20050;-68
2023/02/10 04:03:52;;;;;;;22.90;9.48;;;1.90;99.90;;;;;;5012907;28;20045;-68
2023/02/10 04:06:18;;;;;;;30.25;10.10;;;2.00;99.90;;;;;;5013827;28;20045;-68
2023/02/10 04:08:43;;;;;;;24.73;10.45;;;2.10;99.90;;;;;;5013894;28;20038;-68
2023/02/10 04:11:09;;;;;;;26.15;10.52;;;2.20;99.90;;;;;;5013663;28;20034;-69
2023/02/10 04:13:36;;;;;;;17.20;9.82;;;2.10;99.90;;;;;;5013575;28;20096;-69
2023/02/10 04:16:07;;;;;;;30.45;10.90;;;2.10;99.90;;;;;;5013865;28;20096;-68
2023/02/10 04:18:35;;;;;;;29.20;11.65;;;2.00;99.90;;;;;;5013834;28;20321;-69
2023/02/10 04:21:02;;;;;;;24.40;9.48;;;2.10;99.90;;;;;;5013664;28;20494;-69
2023/02/10 04:23:28;;;;;;;28.20;10.75;;;2.20;99.90;;;;;;5013716;28;20045;-69
2023/02/10 04:25:54;;;;;;;25.08;9.40;;;2.10;99.90;;;;;;5013832;28;20045;-70
2023/02/10 04:28:19;;;;;;;30.17;10.63;;;2.30;99.90;;;;;;5011741;28;20092;-70
2023/02/10 04:30:45;;;;;;;21.70;9.30;;;2.10;99.90;;;;;;5013069;28;20041;-70
2023/02/10 04:33:10;;;;;;;25.52;10.20;;;2.10;99.90;;;;;;5011347;28;20038;-70
2023/02/10 04:35:36;;;;;;;29.02;9.63;;;2.30;99.90;;;;;;5011995;28;20415;-70
2023/02/10 04:38:05;;;;;;;29.75;11.30;;;2.30;99.90;;;;;;5013482;28;20041;-69
2023/02/10 04:40:30;;;;;;;29.50;10.52;;;2.30;99.90;;;;;;5013410;28;20053;-70
2023/02/10 04:42:56;;;;;;;22.02;10.38;;;2.20;99.90;;;;;;5013144;28;20038;-69
2023/02/10 04:45:22;;;;;;;22.15;10.77;;;2.30;99.90;;;;;;5013185;28;20045;-70
2023/02/10 04:47:48;;;;;;;23.42;9.43;;;2.20;99.90;;;;;;5013248;28;20042;-70
2023/02/10 04:50:14;;;;;;;21.50;9.88;;;2.20;99.90;;;;;;5013019;28;20396;-70
2023/02/10 04:52:39;;;;;;;25.65;10.10;;;2.20;99.90;;;;;;5013040;28;20048;-70
2023/02/10 04:55:05;;;;;;;21.35;8.68;;;2.30;99.90;;;;;;5013346;28;20042;-69
2023/02/10 04:57:30;;;;;;;22.10;8.70;;;2.30;99.90;;;;;;5013232;28;20450;-69
2023/02/10 04:59:56;;;;;;;25.15;9.40;;;2.30;99.90;;;;;;5013025;28;20125;-70
2023/02/10 05:02:21;;;;;;;20.02;9.05;;;2.30;99.90;;;;;;5011857;28;20125;-70
2023/02/10 05:04:47;;;;;;;18.48;8.13;;;2.30;99.90;;;;;;5012266;28;20041;-70
2023/02/10 05:07:12;;;;;;;29.00;10.40;;;2.30;99.90;;;;;;5013041;28;20096;-71
2023/02/10 05:09:38;;;;;;;19.70;9.20;;;2.00;99.90;;;;;;5013127;28;20088;-70
2023/02/10 05:12:03;;;;;;;19.27;9.07;;;2.30;99.90;;;;;;5012623;28;20406;-69
2023/02/10 05:14:29;;;;;;;16.50;8.85;;;2.10;99.90;;;;;;5012859;28;20042;-70
2023/02/10 05:16:54;;;;;;;25.95;10.40;;;2.10;99.90;;;;;;5012830;28;20462;-70
2023/02/10 05:19:20;;;;;;;30.80;10.27;;;2.30;99.90;;;;;;5012601;28;20462;-70
2023/02/10 05:21:45;;;;;;;19.88;8.07;;;2.20;99.90;;;;;;5012719;28;20044;-70
2023/02/10 05:24:11;;;;;;;21.35;8.35;;;2.20;99.90;;;;;;5012603;28;20041;-70
2023/02/10 05:26:37;;;;;;;30.55;9.43;;;2.20;99.90;;;;;;5012619;28;20418;-70
2023/02/10 05:29:02;;;;;;;24.15;9.27;;;2.30;99.90;;;;;;5012621;28;20491;-70
2023/02/10 05:31:28;;;;;;;19.90;8.70;;;2.10;99.90;;;;;;5012457;28;20085;-71
2023/02/10 05:33:53;;;;;;;21.73;9.95;;;2.30;99.90;;;;;;5012121;28;20048;-70
2023/02/10 05:36:19;;;;;;;23.80;10.65;;;2.20;99.90;;;;;;5012566;28;20053;-70
2023/02/10 05:39:22;;;;;;;26.13;10.27;;;2.20;99.90;;;;;;5012494;28;20450;-70
2023/02/10 05:41:31;;;;;;;24.85;11.07;;;2.10;99.90;;;;;;5012138;28;20045;-70
2023/02/10 05:43:57;;;;;;;24.20;11.43;;;2.30;99.90;;;;;;5011984;28;20038;-70
2023/02/10 05:46:22;;;;;;;25.60;9.77;;;2.30;99.90;;;;;;5012065;28;20085;-70
2023/02/10 05:48:48;;;;;;;26.15;11.02;;;2.40;99.90;;;;;;5012380;28;20049;-70
2023/02/10 05:51:13;;;;;;;23.40;12.05;;;2.30;99.90;;;;;;5012244;28;20052;-70
2023/02/10 05:53:39;;;;;;;30.08;11.02;;;2.50;99.90;;;;;;5011950;28;20122;-70
2023/02/10 05:56:04;;;;;;;26.00;11.23;;;2.40;99.90;;;;;;5012208;28;20124;-70
2023/02/10 05:58:32;;;;;;;32.15;11.93;;;2.30;99.90;;;;;;5012050;28;20406;-69
2023/02/10 06:00:58;;;;;;;21.95;11.60;;;2.40;99.90;;;;;;5011757;28;20045;-71
2023/02/10 06:03:24;;;;;;;24.67;12.35;;;2.40;99.90;;;;;;5011613;28;20041;-69
2023/02/10 06:05:50;;;;;;;28.50;12.75;;;2.30;99.90;;;;;;5012006;28;20568;-69
2023/02/10 06:08:16;;;;;;;29.27;13.15;;;2.30;99.90;;;;;;5010813;28;20117;-69
2023/02/10 06:10:41;;;;;;;25.85;11.50;;;2.50;99.90;;;;;;5011688;28;20074;-69
2023/02/10 06:13:07;;;;;;;35.67;12.85;;;2.40;99.90;;;;;;5011512;28;20045;-69
2023/02/10 06:15:33;;;;;;;30.75;12.35;;;2.40;99.90;;;;;;5010459;28;20041;-71
2023/02/10 06:17:58;;;;;;;30.35;13.27;;;2.50;99.90;;;;;;5011722;28;20042;-71
2023/02/10 06:20:24;;;;;;;23.00;12.82;;;2.40;99.90;;;;;;5011652;28;20176;-71
2023/02/10 06:22:49;;;;;;;35.00;13.77;;;2.50;99.90;;;;;;5011436;28;20077;-71
2023/02/10 06:25:15;;;;;;;33.45;15.10;;;2.40;99.90;;;;;;5011829;28;20041;-71
2023/02/10 06:27:40;;;;;;;38.03;13.88;;;2.50;99.90;;;;;;5011681;28;20034;-71
2023/02/10 06:30:07;;;;;;;34.28;15.23;;;2.50;99.90;;;;;;5011614;28;20066;-71
2023/02/10 06:32:32;;;;;;;34.35;15.35;;;2.70;99.90;;;;;;5011470;28;20038;-71
2023/02/10 06:34:58;;;;;;;29.65;14.15;;;2.60;99.90;;;;;;5011897;28;20044;-72
2023/02/10 06:37:24;;;;;;;34.60;15.55;;;2.70;99.90;;;;;;5011771;28;20464;-71
2023/02/10 06:39:49;;;;;;;33.63;16.00;;;2.50;99.90;;;;;;5010480;28;20092;-71
2023/02/10 06:42:15;;;;;;;36.47;15.13;;;2.60;99.90;;;;;;5011224;28;20045;-71
2023/02/10 06:44:41;;;;;;;30.90;14.93;;;2.70;99.90;;;;;;5011522;28;20527;-71
2023/02/10 06:47:06;;;;;;;39.72;15.85;;;2.70;99.90;;;;;;5011666;28;20383;-71
2023/02/10 06:49:32;;;;;;;35.80;16.63;;;2.70;99.90;;;;;;4993938;28;20388;-71
2023/02/10 06:51:57;;;;;;;35.15;16.05;;;2.60;99.90;;;;;;5010121;28;20121;-72
2023/02/10 06:54:23;;;;;;;40.72;16.42;;;2.80;99.90;;;;;;5010043;28;20128;-69
2023/02/10 06:56:49;;;;;;;25.02;13.70;;;2.70;99.90;;;;;;5010685;28;20050;-70
2023/02/10 06:59:15;;;;;;;31.90;16.05;;;2.60;99.90;;;;;;5015275;28;20038;-70
2023/02/10 07:01:41;;;;;;;31.52;14.60;;;2.70;99.90;;;;;;5015172;28;20116;-70
2023/02/10 07:04:06;;;;;;;36.65;16.00;;;2.90;99.90;;;;;;5015160;28;20046;-70
2023/02/10 07:06:32;;;;;;;31.98;14.48;;;2.80;99.90;;;;;;5015231;28;20046;-70
2023/02/10 07:08:58;;;;;;;33.70;13.40;;;2.80;99.90;;;;;;5013967;28;20407;-69
2023/02/10 07:11:23;;;;;;;28.50;14.77;;;2.90;99.90;;;;;;5015049;28;20044;-69
2023/02/10 07:13:49;;;;;;;30.90;14.32;;;2.70;99.90;;;;;;5014732;28;20037;-70
2023/02/10 07:16:16;;;;;;;27.63;14.52;;;2.90;99.90;;;;;;5014848;28;20034;-70
2023/02/10 07:18:42;;;;;;;33.22;14.80;;;2.70;99.90;;;;;;5013621;28;20080;-70
2023/02/10 07:21:08;;;;;;;30.10;14.52;;;3.00;99.90;;;;;;5014877;28;20431;-70
2023/02/10 07:23:33;;;;;;;30.77;14.80;;;2.80;99.90;;;;;;5014574;28;20046;-70
2023/02/10 07:25:59;;;;;;;32.40;15.80;;;3.00;99.90;;;;;;5014787;28;20038;-70
2023/02/10 07:28:24;;;;;;;33.72;14.60;;;2.80;99.90;;;;;;5014679;28;20038;-70
2023/02/10 07:30:50;;;;;;;43.78;15.15;;;2.90;99.90;;;;;;5014434;28;20073;-70
2023/02/10 07:33:15;;;;;;;31.30;16.40;;;2.90;99.90;;;;;;5014374;28;20041;-70
2023/02/10 07:35:41;;;;;;;28.83;14.60;;;3.00;99.90;;;;;;5014561;28;20038;-71
2023/02/10 07:38:06;;;;;;;32.03;14.85;;;3.10;99.90;;;;;;5013242;28;20046;-70
2023/02/10 07:40:32;;;;;;;24.95;14.23;;;3.10;99.90;;;;;;5014386;28;20100;-70
2023/02/10 07:42:58;;;;;;;39.28;14.55;;;3.00;99.90;;;;;;5014219;28;20128;-70
2023/02/10 07:45:26;;;;;;;34.95;15.20;;;3.00;99.90;;;;;;5014363;28;20081;-71
2023/02/10 07:47:51;;;;;;;30.23;13.88;;;3.20;99.90;;;;;;5014536;28;20046;-71
2023/02/10 07:50:17;;;;;;;27.80;12.65;;;3.10;99.90;;;;;;5014396;28;20380;-71
2023/02/10 07:52:43;;;;;;;30.27;15.15;;;3.30;99.90;;;;;;5011664;28;20037;-70
2023/02/10 07:55:09;;;;;;;29.73;15.00;;;3.20;99.90;;;;;;5013649;28;20045;-70
2023/02/10 07:57:34;;;;;;;32.47;14.45;;;3.20;99.90;;;;;;5014146;28;20507;-70
2023/02/10 08:00:00;;;;;;;27.38;13.82;;;3.30;99.90;;;;;;5014461;28;20407;-71
2023/02/10 08:02:25;;;;;;;27.88;13.02;;;3.30;99.90;;;;;;5013610;28;20128;-70
2023/02/10 08:04:54;;;;;;;33.20;14.05;;;3.50;99.90;;;;;;5014242;28;20052;-71
2023/02/10 08:07:19;;;;;;;29.63;15.85;;;3.60;99.90;;;;;;5011194;28;20176;-71
2023/02/10 08:09:45;;;;;;;29.35;13.25;;;3.50;99.90;;;;;;5003459;28;20108;-70
2023/02/10 08:12:10;;;;;;;35.38;13.90;;;3.60;99.90;;;;;;5001773;28;20041;-70
2023/02/10 08:14:36;;;;;;;28.27;14.52;;;3.70;99.90;;;;;;4994457;28;20125;-71
2023/02/10 08:17:02;;;;;;;27.15;14.50;;;3.60;99.90;;;;;;4994512;28;20042;-71
2023/02/10 08:19:27;;;;;;;26.83;14.02;;;3.70;99.90;;;;;;4994488;28;20049;-71
2023/02/10 08:21:53;;;;;;;30.02;14.05;;;3.60;99.90;;;;;;4994145;28;20407;-73
2023/02/10 08:24:19;;;;;;;30.30;14.27;;;3.80;99.90;;;;;;4993867;28;20100;-73
2023/02/10 08:26:44;;;;;;;37.08;15.45;;;3.80;99.90;;;;;;4994015;28;20049;-73
2023/02/10 08:29:10;;;;;;;35.00;16.02;;;4.00;99.90;;;;;;4994364;28;20514;-73
2023/02/10 08:31:35;;;;;;;28.85;13.85;;;4.00;99.90;;;;;;4992801;28;20415;-73
2023/02/10 08:34:01;;;;;;;27.05;14.10;;;4.00;99.90;;;;;;4993930;28;20121;-73
2023/02/10 08:36:26;;;;;;;27.67;13.95;;;3.90;99.90;;;;;;4976668;28;20134;-74
2023/02/10 08:38:52;;;;;;;28.15;13.88;;;4.10;99.90;;;;;;4994019;28;20043;-73
2023/02/10 08:41:18;;;;;;;27.98;13.45;;;4.00;99.90;;;;;;4998881;28;20026;-73
2023/02/10 08:43:44;;;;;;;25.65;13.23;;;4.10;99.90;;;;;;5012846;28;20042;-73
2023/02/10 08:46:10;;;;;;;28.73;13.07;;;4.00;99.90;;;;;;5013372;28;20053;-73
2023/02/10 08:48:36;;;;;;;29.52;13.43;;;4.00;99.90;;;;;;5012042;28;20060;-73
2023/02/10 08:51:06;;;;;;;25.33;14.05;;;4.00;99.90;;;;;;5013297;28;20068;-73
2023/02/10 08:53:32;;;;;;;30.80;14.30;;;4.10;99.90;;;;;;5012003;28;20048;-73
2023/02/10 08:56:03;;;;;;;32.55;13.65;;;4.10;99.90;;;;;;5012877;28;20518;-74
2023/02/10 08:58:28;;;;;;;26.77;12.88;;;4.20;99.90;;;;;;5012207;28;20045;-73
2023/02/10 09:00:54;;;;;;;32.40;12.95;;;4.20;99.90;;;;;;5012789;28;20042;-73
2023/02/10 09:03:20;;;;;;;21.70;12.32;;;4.40;99.90;;;;;;5012740;28;20038;-74
2023/02/10 09:05:45;;;;;;;27.25;13.40;;;4.30;99.90;;;;;;5012005;28;20060;-74
2023/02/10 09:08:12;;;;;;;20.52;12.13;;;4.30;99.90;;;;;;5012380;28;20049;-73
2023/02/10 09:10:42;;;;;;;25.42;13.15;;;4.40;99.90;;;;;;5011036;28;20041;-74
2023/02/10 09:13:09;;;;;;;26.35;12.65;;;4.40;99.90;;;;;;5012428;28;20121;-73
2023/02/10 09:15:40;;;;;;;27.27;12.38;;;4.40;99.90;;;;;;5011515;28;20045;-73
2023/02/10 09:18:07;;;;;;;22.00;12.15;;;4.40;99.90;;;;;;5012385;28;20438;-73
2023/02/10 09:20:33;;;;;;;29.60;13.95;;;4.50;99.90;;;;;;5011067;28;20495;-73
2023/02/10 09:22:59;;;;;;;29.65;14.27;;;4.50;99.90;;;;;;5012094;28;20541;-73
2023/02/10 09:25:24;;;;;;;26.27;13.05;;;4.60;99.90;;;;;;5012426;28;20073;-73
2023/02/10 09:27:51;;;;;;;29.73;12.52;;;4.90;99.90;;;;;;5012690;28;20046;-73
2023/02/10 09:30:17;;;;;;;23.90;13.20;;;4.70;99.90;;;;;;5012554;28;20041;-74
2023/02/10 09:32:43;;;;;;;32.20;13.85;;;4.90;99.90;;;;;;5012290;28;20084;-73
2023/02/10 09:35:08;;;;;;;21.63;12.50;;;5.00;99.90;;;;;;5012552;28;20044;-73
2023/02/10 09:37:34;;;;;;;31.65;14.50;;;4.90;99.90;;;;;;5012379;28;20055;-73
2023/02/10 09:39:59;;;;;;;28.48;13.88;;;5.10;99.90;;;;;;5012407;28;20046;-73
2023/02/10 09:42:38;;;;;;;24.38;13.18;;;5.00;99.90;;;;;;5011952;28;20042;-73
2023/02/10 09:45:14;;;;;;;32.85;13.52;;;5.00;99.90;;;;;;5012323;28;20707;-73
2023/02/10 09:47:52;;;;;;;25.65;14.13;;;5.00;99.90;;;;;;5012164;28;20041;-73
2023/02/10 09:50:30;;;;;;;29.08;15.20;;;5.20;99.90;;;;;;5012010;28;20041;-74
2023/02/10 09:53:20;;;;;;;27.55;13.15;;;5.30;99.90;;;;;;5011756;28;20550;-74
2023/02/10 09:56:02;;;;;;;27.98;14.82;;;5.40;99.90;;;;;;5012227;28;20038;-73
2023/02/10 09:58:33;;;;;;;31.20;15.38;;;5.30;99.90;;;;;;5012064;28;20388;-73
2023/02/10 10:01:13;;;;;;;28.63;14.00;;;5.30;99.90;;;;;;5012090;28;20038;-73
2023/02/10 10:04:01;;;;;;;29.25;14.18;;;5.30;99.90;;;;;;5011869;28;20446;-73
2023/02/10 10:06:33;;;;;;;30.95;14.05;;;5.40;99.90;;;;;;5010704;28;20053;-73
2023/02/10 10:09:07;;;;;;;33.42;15.02;;;5.60;99.90;;;;;;5011790;28;20059;-73
2023/02/10 10:11:43;;;;;;;25.58;14.40;;;5.60;99.90;;;;;;5011725;28;20495;-73
2023/02/10 10:14:35;;;;;;;27.10;14.52;;;5.60;99.90;;;;;;5011590;28;20056;-73
2023/02/10 10:17:38;;;;;;;29.88;15.40;;;5.60;99.90;;;;;;5012050;28;20050;-73
2023/02/10 10:20:37;;;;;;;29.05;12.98;;;5.70;99.90;;;;;;5011799;28;20053;-73
2023/02/10 10:23:21;;;;;;;28.58;13.80;;;5.60;99.90;;;;;;5011587;28;20046;-73
2023/02/10 10:26:15;;;;;;;32.42;14.95;;;5.80;99.90;;;;;;5011732;28;20655;-73
2023/02/10 10:29:20;;;;;;;29.38;14.02;;;5.70;99.90;;;;;;5012036;28;20049;-73
2023/02/10 10:31:48;;;;;;;30.27;14.40;;;5.80;99.90;;;;;;5010849;28;20069;-73
2023/02/10 10:34:18;;;;;;;28.13;14.73;;;5.90;99.90;;;;;;5011657;28;20109;-73
2023/02/10 10:36:46;;;;;;;27.30;13.35;;;6.00;99.90;;;;;;5011687;28;20034;-73
2023/02/10 10:39:31;;;;;;;22.45;14.07;;;6.00;99.90;;;;;;5010694;28;20110;-73
2023/02/10 10:42:00;;;;;;;27.40;13.50;;;6.00;99.90;;;;;;5011443;28;20042;-73
2023/02/10 10:44:30;;;;;;;36.05;14.98;;;6.00;99.90;;;;;;5011637;28;20046;-74
2023/02/10 10:47:09;;;;;;;21.63;12.93;;;6.10;99.90;;;;;;5011787;28;20042;-73
2023/02/10 10:49:36;;;;;;;32.47;12.70;;;6.10;99.90;;;;;;5011577;28;20046;-73
2023/02/10 10:52:02;;;;;;;28.55;13.32;;;6.00;99.90;;;;;;5011158;28;20034;-73
2023/02/10 10:54:29;;;;;;;28.95;14.00;;;6.20;99.90;;;;;;5011552;28;20080;-73
2023/02/10 10:57:01;;;;;;;30.02;13.70;;;6.20;99.90;;;;;;5011469;28;20045;-73
2023/02/10 10:59:40;;;;;;;25.52;12.00;;;6.20;99.90;;;;;;5011183;28;20037;-73
2023/02/10 11:02:21;;;;;;;25.58;13.10;;;6.30;99.90;;;;;;5010943;28;20112;-73
2023/02/10 11:05:03;;;;;;;25.02;13.13;;;6.40;99.90;;;;;;5011502;28;20491;-73
2023/02/10 11:07:32;;;;;;;24.38;13.50;;;6.30;99.90;;;;;;5011297;28;20121;-73
2023/02/10 11:09:59;;;;;;;24.20;12.85;;;6.50;99.90;;;;;;5011494;28;20103;-73
2023/02/10 11:12:36;;;;;;;27.10;12.80;;;6.50;99.90;;;;;;5011064;28;20049;-73
2023/02/10 11:15:25;;;;;;;27.85;12.38;;;6.50;99.90;;;;;;5010013;28;20124;-73
2023/02/10 11:17:52;;;;;;;34.95;13.23;;;6.70;99.90;;;;;;5011257;28;20085;-73
2023/02/10 11:20:23;;;;;;;28.35;12.07;;;6.70;99.90;;;;;;5011363;28;20050;-73
2023/02/10 11:23:04;;;;;;;29.17;13.13;;;6.70;99.90;;;;;;5011220;28;20404;-73
2023/02/10 11:25:34;;;;;;;40.90;15.23;;;6.70;99.90;;;;;;5011377;28;20046;-73
2023/02/10 11:28:01;;;;;;;27.65;12.45;;;6.80;99.90;;;;;;5011159;28;20411;-73
2023/02/10 11:30:38;;;;;;;29.30;12.70;;;6.70;99.90;;;;;;5011000;28;20045;-73
2023/02/10 11:33:05;;;;;;;24.25;12.25;;;6.80;99.90;;;;;;5011166;28;20059;-73
2023/02/10 11:35:32;;;;;;;27.63;13.52;;;6.90;99.90;;;;;;5011205;28;20038;-73
2023/02/10 11:38:07;;;;;;;28.33;12.70;;;7.00;99.90;;;;;;5011298;28;20073;-74
2023/02/10 11:40:57;;;;;;;29.90;12.20;;;7.10;99.90;;;;;;5011012;28;20120;-73
2023/02/10 11:43:39;;;;;;;42.53;14.00;;;7.10;99.90;;;;;;5012331;28;20073;-73
2023/02/10 11:46:09;;;;;;;34.05;11.93;;;7.30;99.90;;;;;;5014690;28;20030;-74
2023/02/10 11:48:35;;;;;;;28.02;12.75;;;7.30;99.90;;;;;;5014607;28;20073;-74
2023/02/10 11:51:15;;;;;;;28.42;12.43;;;7.40;99.90;;;;;;5014090;28;20092;-74
2023/02/10 11:53:42;;;;;;;29.10;12.45;;;7.40;99.90;;;;;;5014166;28;20384;-73
2023/02/10 11:59:37;;;;;;;21.98;9.95;;;7.40;99.90;;;;;;5014301;28;20046;-74
2023/02/10 12:02:18;;;;;;;25.33;10.25;;;7.50;99.90;;;;;;5012588;28;20507;-73
2023/02/10 12:04:56;;;;;;;20.60;9.55;;;7.40;99.90;;;;;;5012890;28;20049;-73
2023/02/10 12:07:24;;;;;;;16.98;9.30;;;7.40;99.90;;;;;;5012930;28;20078;-74
2023/02/10 12:10:01;;;;;;;20.95;9.55;;;7.50;99.90;;;;;;5013903;28;20034;-73
2023/02/10 12:12:44;;;;;;;27.25;11.52;;;7.40;99.90;;;;;;5012414;28;20046;-73
2023/02/10 12:15:36;;;;;;;23.42;11.65;;;7.50;99.90;;;;;;5012479;28;20038;-73
2023/02/10 12:18:17;;;;;;;21.08;10.23;;;7.50;99.90;;;;;;5013961;28;20052;-74
2023/02/10 12:21:00;;;;;;;22.75;11.05;;;7.60;99.90;;;;;;5013948;28;20057;-74
2023/02/10 12:24:02;;;;;;;19.15;9.63;;;7.50;99.90;;;;;;5013630;28;20037;-74
2023/02/10 12:26:33;;;;;;;20.55;9.45;;;7.60;99.90;;;;;;5012322;28;20084;-73
2023/02/10 12:29:39;;;;;;;24.58;8.90;;;7.70;99.90;;;;;;5013925;28;20053;-73
2023/02/10 12:32:32;;;;;;;21.50;8.80;;;7.90;99.90;;;;;;5013267;28;20052;-74
2023/02/10 12:35:07;;;;;;;18.30;7.80;;;7.80;99.90;;;;;;5013585;28;20042;-74
2023/02/10 12:37:47;;;;;;;20.52;8.75;;;8.00;99.90;;;;;;5013780;28;20057;-74
2023/02/10 12:40:30;;;;;;;18.75;7.18;;;8.00;99.90;;;;;;5012515;28;20081;-74
2023/02/10 12:43:15;;;;;;;;;;;8.00;99.90;;;;;;5013792;28;20045;-74
2023/02/10 12:45:56;;;;;;;14.73;5.60;;;8.00;99.90;;;;;;5013440;28;19963;-74
2023/02/10 12:48:35;;;;;;;12.40;5.72;;;8.10;99.90;;;;;;5013325;28;20168;-74
2023/02/10 12:51:18;;;;;;;16.45;7.20;;;8.20;99.90;;;;;;5013333;28;20510;-73
2023/02/10 12:54:10;;;;;;;13.27;6.80;;;8.30;99.90;;;;;;5012831;28;20052;-74
2023/02/10 12:56:53;;;;;;;20.90;6.75;;;8.30;99.90;;;;;;4975324;28;20046;-74
2023/02/10 12:59:27;;;;;;;14.02;6.28;;;8.30;99.90;;;;;;5013110;28;20484;-73